sensor_id;sensor_type;location;lat;lon;timestamp;P1;durP1;ratioP1;P2;durP2;ratioP2
32108;SDS011;18624;50.042;8.436;2022-11-03T00:01:10;13.50;;;9.77;;
32108;SDS011;18624;50.042;8.436;2022-11-03T00:03:37;10.80;;;7.70;;
32108;SDS011;18624;50.042;8.436;2022-11-03T00:06:03;13.10;;;7.88;;
32108;SDS011;18624;50.042;8.436;2022-11-03T00:08:40;12.65;;;8.23;;
32108;SDS011;18624;50.042;8.436;2022-11-03T00:13:36;13.48;;;7.55;;
32108;SDS011;18624;50.042;8.436;2022-11-03T00:16:03;11.50;;;7.85;;
32108;SDS011;18624;50.042;8.436;2022-11-03T00:18:30;10.90;;;7.53;;
32108;SDS011;18624;50.042;8.436;2022-11-03T00:21:01;12.70;;;7.68;;
32108;SDS011;18624;50.042;8.436;2022-11-03T00:23:30;15.48;;;8.88;;
32108;SDS011;18624;50.042;8.436;2022-11-03T00:26:18;15.63;;;7.38;;
32108;SDS011;18624;50.042;8.436;2022-11-03T00:28:47;14.15;;;8.02;;
32108;SDS011;18624;50.042;8.436;2022-11-03T00:31:16;12.00;;;6.90;;
32108;SDS011;18624;50.042;8.436;2022-11-03T00:33:44;10.70;;;7.57;;
32108;SDS011;18624;50.042;8.436;2022-11-03T00:36:12;12.77;;;7.35;;
32108;SDS011;18624;50.042;8.436;2022-11-03T00:38:41;13.95;;;7.75;;
32108;SDS011;18624;50.042;8.436;2022-11-03T00:41:08;14.18;;;7.70;;
32108;SDS011;18624;50.042;8.436;2022-11-03T00:43:35;12.65;;;7.15;;
32108;SDS011;18624;50.042;8.436;2022-11-03T00:46:02;21.00;;;9.45;;
32108;SDS011;18624;50.042;8.436;2022-11-03T00:48:33;16.33;;;7.88;;
32108;SDS011;18624;50.042;8.436;2022-11-03T00:53:41;9.38;;;6.60;;
32108;SDS011;18624;50.042;8.436;2022-11-03T00:56:12;15.90;;;7.07;;
32108;SDS011;18624;50.042;8.436;2022-11-03T00:58:41;16.20;;;8.00;;
32108;SDS011;18624;50.042;8.436;2022-11-03T01:01:12;14.00;;;8.00;;
32108;SDS011;18624;50.042;8.436;2022-11-03T01:03:48;11.05;;;7.20;;
32108;SDS011;18624;50.042;8.436;2022-11-03T01:06:36;12.20;;;7.18;;
32108;SDS011;18624;50.042;8.436;2022-11-03T01:11:49;11.85;;;7.28;;
32108;SDS011;18624;50.042;8.436;2022-11-03T01:14:23;11.75;;;7.10;;
32108;SDS011;18624;50.042;8.436;2022-11-03T01:16:50;11.60;;;7.75;;
32108;SDS011;18624;50.042;8.436;2022-11-03T01:19:17;11.07;;;7.53;;
32108;SDS011;18624;50.042;8.436;2022-11-03T01:21:43;9.70;;;6.57;;
32108;SDS011;18624;50.042;8.436;2022-11-03T01:24:09;11.25;;;7.00;;
32108;SDS011;18624;50.042;8.436;2022-11-03T01:26:36;13.25;;;7.57;;
32108;SDS011;18624;50.042;8.436;2022-11-03T01:29:02;12.95;;;7.60;;
32108;SDS011;18624;50.042;8.436;2022-11-03T01:31:30;14.20;;;8.52;;
32108;SDS011;18624;50.042;8.436;2022-11-03T01:33:57;14.07;;;6.90;;
32108;SDS011;18624;50.042;8.436;2022-11-03T01:36:23;13.68;;;7.32;;
32108;SDS011;18624;50.042;8.436;2022-11-03T01:38:52;13.38;;;7.18;;
32108;SDS011;18624;50.042;8.436;2022-11-03T01:41:20;11.35;;;7.65;;
32108;SDS011;18624;50.042;8.436;2022-11-03T01:43:49;20.58;;;10.75;;
32108;SDS011;18624;50.042;8.436;2022-11-03T01:46:19;10.18;;;6.90;;
32108;SDS011;18624;50.042;8.436;2022-11-03T01:49:03;10.70;;;7.00;;
32108;SDS011;18624;50.042;8.436;2022-11-03T01:51:36;11.02;;;6.47;;
32108;SDS011;18624;50.042;8.436;2022-11-03T01:54:08;9.63;;;7.05;;
32108;SDS011;18624;50.042;8.436;2022-11-03T01:56:39;9.77;;;6.15;;
32108;SDS011;18624;50.042;8.436;2022-11-03T01:59:08;11.75;;;6.93;;
32108;SDS011;18624;50.042;8.436;2022-11-03T02:01:35;11.73;;;5.90;;
32108;SDS011;18624;50.042;8.436;2022-11-03T02:04:04;9.90;;;7.43;;
32108;SDS011;18624;50.042;8.436;2022-11-03T02:06:35;11.20;;;8.27;;
32108;SDS011;18624;50.042;8.436;2022-11-03T02:09:03;11.27;;;7.15;;
32108;SDS011;18624;50.042;8.436;2022-11-03T02:11:31;13.60;;;7.45;;
32108;SDS011;18624;50.042;8.436;2022-11-03T02:14:17;10.98;;;6.85;;
32108;SDS011;18624;50.042;8.436;2022-11-03T02:16:50;10.82;;;6.95;;
32108;SDS011;18624;50.042;8.436;2022-11-03T02:19:26;12.73;;;7.43;;
32108;SDS011;18624;50.042;8.436;2022-11-03T02:27:56;13.40;;;6.63;;
32108;SDS011;18624;50.042;8.436;2022-11-03T02:30:24;9.30;;;6.20;;
32108;SDS011;18624;50.042;8.436;2022-11-03T02:32:55;12.02;;;7.55;;
32108;SDS011;18624;50.042;8.436;2022-11-03T02:35:34;9.93;;;6.60;;
32108;SDS011;18624;50.042;8.436;2022-11-03T02:38:08;12.73;;;7.28;;
32108;SDS011;18624;50.042;8.436;2022-11-03T02:40:44;16.25;;;7.25;;
32108;SDS011;18624;50.042;8.436;2022-11-03T02:43:13;13.05;;;7.57;;
32108;SDS011;18624;50.042;8.436;2022-11-03T02:45:42;11.55;;;7.15;;
32108;SDS011;18624;50.042;8.436;2022-11-03T02:48:13;12.65;;;9.60;;
32108;SDS011;18624;50.042;8.436;2022-11-03T02:50:41;9.43;;;6.75;;
32108;SDS011;18624;50.042;8.436;2022-11-03T02:53:10;10.90;;;6.93;;
32108;SDS011;18624;50.042;8.436;2022-11-03T02:55:39;13.45;;;7.53;;
32108;SDS011;18624;50.042;8.436;2022-11-03T02:58:16;11.27;;;7.25;;
32108;SDS011;18624;50.042;8.436;2022-11-03T03:01:03;12.05;;;7.22;;
32108;SDS011;18624;50.042;8.436;2022-11-03T03:03:58;11.98;;;7.10;;
32108;SDS011;18624;50.042;8.436;2022-11-03T03:06:42;17.48;;;8.02;;
32108;SDS011;18624;50.042;8.436;2022-11-03T03:09:20;12.85;;;6.80;;
32108;SDS011;18624;50.042;8.436;2022-11-03T03:11:51;8.43;;;5.50;;
32108;SDS011;18624;50.042;8.436;2022-11-03T03:14:22;8.40;;;5.10;;
32108;SDS011;18624;50.042;8.436;2022-11-03T03:19:26;7.38;;;5.65;;
32108;SDS011;18624;50.042;8.436;2022-11-03T03:22:07;8.77;;;5.80;;
32108;SDS011;18624;50.042;8.436;2022-11-03T03:24:42;7.60;;;5.22;;
32108;SDS011;18624;50.042;8.436;2022-11-03T03:27:15;16.80;;;6.90;;
32108;SDS011;18624;50.042;8.436;2022-11-03T03:29:48;9.82;;;5.60;;
32108;SDS011;18624;50.042;8.436;2022-11-03T03:32:18;6.30;;;5.13;;
32108;SDS011;18624;50.042;8.436;2022-11-03T03:34:47;10.63;;;6.18;;
32108;SDS011;18624;50.042;8.436;2022-11-03T03:37:16;8.50;;;5.65;;
32108;SDS011;18624;50.042;8.436;2022-11-03T03:39:46;9.35;;;5.80;;
32108;SDS011;18624;50.042;8.436;2022-11-03T03:42:16;7.00;;;5.22;;
32108;SDS011;18624;50.042;8.436;2022-11-03T03:44:46;9.95;;;6.80;;
32108;SDS011;18624;50.042;8.436;2022-11-03T03:47:17;8.70;;;5.82;;
32108;SDS011;18624;50.042;8.436;2022-11-03T03:49:47;6.75;;;5.95;;
32108;SDS011;18624;50.042;8.436;2022-11-03T03:52:14;11.45;;;5.95;;
32108;SDS011;18624;50.042;8.436;2022-11-03T03:54:40;7.97;;;5.68;;
32108;SDS011;18624;50.042;8.436;2022-11-03T03:57:09;8.25;;;5.72;;
32108;SDS011;18624;50.042;8.436;2022-11-03T03:59:41;5.40;;;4.90;;
32108;SDS011;18624;50.042;8.436;2022-11-03T04:02:09;6.90;;;5.40;;
32108;SDS011;18624;50.042;8.436;2022-11-03T04:04:36;8.90;;;5.45;;
32108;SDS011;18624;50.042;8.436;2022-11-03T04:07:02;8.75;;;5.47;;
32108;SDS011;18624;50.042;8.436;2022-11-03T04:09:47;5.65;;;5.00;;
32108;SDS011;18624;50.042;8.436;2022-11-03T04:12:14;8.43;;;5.65;;
32108;SDS011;18624;50.042;8.436;2022-11-03T04:15:11;10.93;;;6.03;;
32108;SDS011;18624;50.042;8.436;2022-11-03T04:17:56;9.07;;;5.85;;
32108;SDS011;18624;50.042;8.436;2022-11-03T04:20:41;9.00;;;6.07;;
32108;SDS011;18624;50.042;8.436;2022-11-03T04:23:27;12.98;;;7.97;;
32108;SDS011;18624;50.042;8.436;2022-11-03T04:25:54;9.15;;;6.43;;
32108;SDS011;18624;50.042;8.436;2022-11-03T04:28:21;8.45;;;6.82;;
32108;SDS011;18624;50.042;8.436;2022-11-03T04:30:50;11.02;;;6.93;;
32108;SDS011;18624;50.042;8.436;2022-11-03T04:33:22;10.38;;;7.00;;
32108;SDS011;18624;50.042;8.436;2022-11-03T04:35:49;9.02;;;6.10;;
32108;SDS011;18624;50.042;8.436;2022-11-03T04:38:20;9.88;;;6.55;;
32108;SDS011;18624;50.042;8.436;2022-11-03T04:40:52;8.77;;;6.72;;
32108;SDS011;18624;50.042;8.436;2022-11-03T04:43:33;9.30;;;5.93;;
32108;SDS011;18624;50.042;8.436;2022-11-03T04:46:01;8.38;;;5.85;;
32108;SDS011;18624;50.042;8.436;2022-11-03T04:48:28;7.70;;;5.80;;
32108;SDS011;18624;50.042;8.436;2022-11-03T04:50:57;12.38;;;6.97;;
32108;SDS011;18624;50.042;8.436;2022-11-03T04:53:27;10.93;;;6.35;;
32108;SDS011;18624;50.042;8.436;2022-11-03T04:55:55;9.68;;;6.07;;
32108;SDS011;18624;50.042;8.436;2022-11-03T04:58:25;10.43;;;5.93;;
32108;SDS011;18624;50.042;8.436;2022-11-03T05:00:54;7.55;;;5.25;;
32108;SDS011;18624;50.042;8.436;2022-11-03T05:03:24;6.45;;;5.28;;
32108;SDS011;18624;50.042;8.436;2022-11-03T05:05:53;11.82;;;5.32;;
32108;SDS011;18624;50.042;8.436;2022-11-03T05:08:19;7.75;;;5.63;;
32108;SDS011;18624;50.042;8.436;2022-11-03T05:10:46;10.38;;;5.90;;
32108;SDS011;18624;50.042;8.436;2022-11-03T05:13:24;8.30;;;5.55;;
32108;SDS011;18624;50.042;8.436;2022-11-03T05:16:02;7.43;;;5.15;;
32108;SDS011;18624;50.042;8.436;2022-11-03T05:21:02;7.78;;;5.65;;
32108;SDS011;18624;50.042;8.436;2022-11-03T05:23:31;8.23;;;6.07;;
32108;SDS011;18624;50.042;8.436;2022-11-03T05:26:04;7.82;;;6.15;;
32108;SDS011;18624;50.042;8.436;2022-11-03T05:28:32;8.77;;;5.25;;
32108;SDS011;18624;50.042;8.436;2022-11-03T05:31:13;8.13;;;6.45;;
32108;SDS011;18624;50.042;8.436;2022-11-03T05:33:44;9.82;;;6.22;;
32108;SDS011;18624;50.042;8.436;2022-11-03T05:36:13;7.32;;;5.85;;
32108;SDS011;18624;50.042;8.436;2022-11-03T05:38:45;6.07;;;5.15;;
32108;SDS011;18624;50.042;8.436;2022-11-03T05:41:21;8.57;;;7.18;;
32108;SDS011;18624;50.042;8.436;2022-11-03T05:43:53;7.25;;;6.53;;
32108;SDS011;18624;50.042;8.436;2022-11-03T05:48:49;7.63;;;6.18;;
32108;SDS011;18624;50.042;8.436;2022-11-03T05:51:38;6.78;;;5.30;;
32108;SDS011;18624;50.042;8.436;2022-11-03T05:54:08;9.18;;;6.18;;
32108;SDS011;18624;50.042;8.436;2022-11-03T05:56:45;9.02;;;5.93;;
32108;SDS011;18624;50.042;8.436;2022-11-03T05:59:12;9.25;;;6.93;;
32108;SDS011;18624;50.042;8.436;2022-11-03T06:01:39;10.88;;;6.63;;
32108;SDS011;18624;50.042;8.436;2022-11-03T06:07:00;8.67;;;6.03;;
32108;SDS011;18624;50.042;8.436;2022-11-03T06:09:28;13.05;;;6.80;;
32108;SDS011;18624;50.042;8.436;2022-11-03T06:11:59;8.45;;;6.45;;
32108;SDS011;18624;50.042;8.436;2022-11-03T06:14:30;9.77;;;6.30;;
32108;SDS011;18624;50.042;8.436;2022-11-03T06:16:59;8.63;;;6.75;;
32108;SDS011;18624;50.042;8.436;2022-11-03T06:19:37;9.13;;;6.20;;
32108;SDS011;18624;50.042;8.436;2022-11-03T06:22:10;9.05;;;6.60;;
32108;SDS011;18624;50.042;8.436;2022-11-03T06:24:54;10.38;;;6.32;;
32108;SDS011;18624;50.042;8.436;2022-11-03T06:27:24;9.13;;;6.70;;
32108;SDS011;18624;50.042;8.436;2022-11-03T06:29:56;9.65;;;7.45;;
32108;SDS011;18624;50.042;8.436;2022-11-03T06:32:46;12.20;;;6.60;;
32108;SDS011;18624;50.042;8.436;2022-11-03T06:35:12;7.88;;;6.18;;
32108;SDS011;18624;50.042;8.436;2022-11-03T06:37:39;11.68;;;6.97;;
32108;SDS011;18624;50.042;8.436;2022-11-03T06:42:40;9.63;;;7.13;;
32108;SDS011;18624;50.042;8.436;2022-11-03T06:45:11;9.15;;;6.43;;
32108;SDS011;18624;50.042;8.436;2022-11-03T06:47:49;9.68;;;6.75;;
32108;SDS011;18624;50.042;8.436;2022-11-03T06:50:19;10.70;;;6.45;;
32108;SDS011;18624;50.042;8.436;2022-11-03T06:52:49;13.38;;;7.70;;
32108;SDS011;18624;50.042;8.436;2022-11-03T06:55:21;10.32;;;6.97;;
32108;SDS011;18624;50.042;8.436;2022-11-03T06:57:58;9.07;;;5.90;;
32108;SDS011;18624;50.042;8.436;2022-11-03T07:00:28;8.65;;;6.30;;
32108;SDS011;18624;50.042;8.436;2022-11-03T07:03:13;10.55;;;5.97;;
32108;SDS011;18624;50.042;8.436;2022-11-03T07:05:48;12.30;;;7.00;;
32108;SDS011;18624;50.042;8.436;2022-11-03T07:08:22;8.90;;;6.82;;
32108;SDS011;18624;50.042;8.436;2022-11-03T07:10:59;9.90;;;6.22;;
32108;SDS011;18624;50.042;8.436;2022-11-03T07:13:46;12.82;;;6.40;;
32108;SDS011;18624;50.042;8.436;2022-11-03T07:16:18;11.13;;;6.10;;
32108;SDS011;18624;50.042;8.436;2022-11-03T07:18:52;10.35;;;7.22;;
32108;SDS011;18624;50.042;8.436;2022-11-03T07:24:02;6.70;;;5.38;;
32108;SDS011;18624;50.042;8.436;2022-11-03T07:26:37;9.68;;;6.60;;
32108;SDS011;18624;50.042;8.436;2022-11-03T07:29:03;13.63;;;7.53;;
32108;SDS011;18624;50.042;8.436;2022-11-03T07:31:30;16.38;;;7.68;;
32108;SDS011;18624;50.042;8.436;2022-11-03T07:33:57;13.68;;;7.55;;
32108;SDS011;18624;50.042;8.436;2022-11-03T07:36:24;10.20;;;6.85;;
32108;SDS011;18624;50.042;8.436;2022-11-03T07:38:56;16.08;;;7.82;;
32108;SDS011;18624;50.042;8.436;2022-11-03T07:41:27;11.20;;;6.63;;
32108;SDS011;18624;50.042;8.436;2022-11-03T07:44:00;13.20;;;7.65;;
32108;SDS011;18624;50.042;8.436;2022-11-03T07:46:27;9.90;;;7.25;;
32108;SDS011;18624;50.042;8.436;2022-11-03T07:48:57;14.10;;;8.10;;
32108;SDS011;18624;50.042;8.436;2022-11-03T07:51:26;12.90;;;7.75;;
32108;SDS011;18624;50.042;8.436;2022-11-03T07:54:17;15.73;;;9.20;;
32108;SDS011;18624;50.042;8.436;2022-11-03T07:59:19;16.45;;;11.27;;
32108;SDS011;18624;50.042;8.436;2022-11-03T08:01:53;13.90;;;10.50;;
32108;SDS011;18624;50.042;8.436;2022-11-03T08:04:30;11.80;;;8.45;;
32108;SDS011;18624;50.042;8.436;2022-11-03T08:07:00;11.23;;;8.48;;
32108;SDS011;18624;50.042;8.436;2022-11-03T08:09:27;13.07;;;10.30;;
32108;SDS011;18624;50.042;8.436;2022-11-03T08:11:53;15.93;;;9.77;;
32108;SDS011;18624;50.042;8.436;2022-11-03T08:14:20;15.82;;;9.65;;
32108;SDS011;18624;50.042;8.436;2022-11-03T08:16:46;15.27;;;9.95;;
32108;SDS011;18624;50.042;8.436;2022-11-03T08:19:13;20.08;;;11.80;;
32108;SDS011;18624;50.042;8.436;2022-11-03T08:21:39;11.48;;;9.02;;
32108;SDS011;18624;50.042;8.436;2022-11-03T08:24:05;17.17;;;10.77;;
32108;SDS011;18624;50.042;8.436;2022-11-03T08:26:32;13.75;;;10.25;;
32108;SDS011;18624;50.042;8.436;2022-11-03T08:28:58;13.10;;;8.82;;
32108;SDS011;18624;50.042;8.436;2022-11-03T08:31:25;17.60;;;10.93;;
32108;SDS011;18624;50.042;8.436;2022-11-03T08:33:52;18.83;;;10.88;;
32108;SDS011;18624;50.042;8.436;2022-11-03T08:36:18;16.55;;;10.02;;
32108;SDS011;18624;50.042;8.436;2022-11-03T08:38:45;12.27;;;9.15;;
32108;SDS011;18624;50.042;8.436;2022-11-03T08:41:12;17.75;;;10.65;;
32108;SDS011;18624;50.042;8.436;2022-11-03T08:43:38;17.25;;;9.18;;
32108;SDS011;18624;50.042;8.436;2022-11-03T08:46:05;14.73;;;9.95;;
32108;SDS011;18624;50.042;8.436;2022-11-03T08:48:42;18.63;;;8.45;;
32108;SDS011;18624;50.042;8.436;2022-11-03T08:51:09;21.27;;;9.80;;
32108;SDS011;18624;50.042;8.436;2022-11-03T08:53:38;11.75;;;8.13;;
32108;SDS011;18624;50.042;8.436;2022-11-03T08:56:05;11.90;;;8.30;;
32108;SDS011;18624;50.042;8.436;2022-11-03T08:58:37;10.43;;;6.80;;
32108;SDS011;18624;50.042;8.436;2022-11-03T09:01:04;12.27;;;8.27;;
32108;SDS011;18624;50.042;8.436;2022-11-03T09:03:30;9.73;;;7.72;;
32108;SDS011;18624;50.042;8.436;2022-11-03T09:05:57;14.25;;;8.52;;
32108;SDS011;18624;50.042;8.436;2022-11-03T09:08:23;17.98;;;9.15;;
32108;SDS011;18624;50.042;8.436;2022-11-03T09:11:10;16.15;;;9.25;;
32108;SDS011;18624;50.042;8.436;2022-11-03T09:13:36;18.42;;;8.65;;
32108;SDS011;18624;50.042;8.436;2022-11-03T09:16:03;16.60;;;9.13;;
32108;SDS011;18624;50.042;8.436;2022-11-03T09:18:29;13.32;;;9.05;;
32108;SDS011;18624;50.042;8.436;2022-11-03T09:20:57;13.98;;;7.97;;
32108;SDS011;18624;50.042;8.436;2022-11-03T09:23:23;13.57;;;8.38;;
32108;SDS011;18624;50.042;8.436;2022-11-03T09:25:50;12.15;;;8.52;;
32108;SDS011;18624;50.042;8.436;2022-11-03T09:28:16;14.40;;;9.23;;
32108;SDS011;18624;50.042;8.436;2022-11-03T09:30:43;16.42;;;9.80;;
32108;SDS011;18624;50.042;8.436;2022-11-03T09:33:09;13.85;;;9.10;;
32108;SDS011;18624;50.042;8.436;2022-11-03T09:35:36;13.25;;;7.75;;
32108;SDS011;18624;50.042;8.436;2022-11-03T09:38:02;12.35;;;8.70;;
32108;SDS011;18624;50.042;8.436;2022-11-03T09:40:29;15.57;;;7.95;;
32108;SDS011;18624;50.042;8.436;2022-11-03T09:42:56;12.98;;;8.77;;
32108;SDS011;18624;50.042;8.436;2022-11-03T09:45:27;17.50;;;9.77;;
32108;SDS011;18624;50.042;8.436;2022-11-03T09:47:56;18.70;;;8.95;;
32108;SDS011;18624;50.042;8.436;2022-11-03T09:50:22;12.02;;;7.50;;
32108;SDS011;18624;50.042;8.436;2022-11-03T09:52:49;13.13;;;8.32;;
32108;SDS011;18624;50.042;8.436;2022-11-03T09:55:23;12.95;;;8.40;;
32108;SDS011;18624;50.042;8.436;2022-11-03T09:57:51;14.05;;;8.43;;
32108;SDS011;18624;50.042;8.436;2022-11-03T10:00:21;14.00;;;7.70;;
32108;SDS011;18624;50.042;8.436;2022-11-03T10:02:48;13.45;;;8.68;;
32108;SDS011;18624;50.042;8.436;2022-11-03T10:05:23;12.38;;;7.60;;
32108;SDS011;18624;50.042;8.436;2022-11-03T10:07:51;14.68;;;8.60;;
32108;SDS011;18624;50.042;8.436;2022-11-03T10:10:30;16.08;;;8.23;;
32108;SDS011;18624;50.042;8.436;2022-11-03T10:12:57;13.63;;;8.77;;
32108;SDS011;18624;50.042;8.436;2022-11-03T10:15:25;13.75;;;7.70;;
32108;SDS011;18624;50.042;8.436;2022-11-03T10:17:53;13.23;;;8.88;;
32108;SDS011;18624;50.042;8.436;2022-11-03T10:20:21;16.05;;;7.50;;
32108;SDS011;18624;50.042;8.436;2022-11-03T10:22:51;15.10;;;8.00;;
32108;SDS011;18624;50.042;8.436;2022-11-03T10:28:14;12.25;;;8.90;;
32108;SDS011;18624;50.042;8.436;2022-11-03T10:33:39;13.68;;;8.50;;
32108;SDS011;18624;50.042;8.436;2022-11-03T10:36:30;16.60;;;8.13;;
32108;SDS011;18624;50.042;8.436;2022-11-03T10:38:57;11.30;;;7.10;;
32108;SDS011;18624;50.042;8.436;2022-11-03T10:41:25;11.82;;;7.68;;
32108;SDS011;18624;50.042;8.436;2022-11-03T10:46:25;13.05;;;7.75;;
32108;SDS011;18624;50.042;8.436;2022-11-03T10:49:13;19.45;;;8.48;;
32108;SDS011;18624;50.042;8.436;2022-11-03T10:51:42;12.98;;;8.23;;
32108;SDS011;18624;50.042;8.436;2022-11-03T10:54:11;15.82;;;7.93;;
32108;SDS011;18624;50.042;8.436;2022-11-03T10:56:42;14.10;;;8.07;;
32108;SDS011;18624;50.042;8.436;2022-11-03T10:59:19;11.25;;;7.78;;
32108;SDS011;18624;50.042;8.436;2022-11-03T11:01:49;13.57;;;7.13;;
32108;SDS011;18624;50.042;8.436;2022-11-03T11:04:17;12.90;;;8.23;;
32108;SDS011;18624;50.042;8.436;2022-11-03T11:06:45;17.25;;;9.20;;
32108;SDS011;18624;50.042;8.436;2022-11-03T11:09:13;14.23;;;8.30;;
32108;SDS011;18624;50.042;8.436;2022-11-03T11:14:50;12.52;;;8.00;;
32108;SDS011;18624;50.042;8.436;2022-11-03T11:22:48;10.90;;;8.02;;
32108;SDS011;18624;50.042;8.436;2022-11-03T11:25:18;11.70;;;7.60;;
32108;SDS011;18624;50.042;8.436;2022-11-03T11:27:45;12.35;;;7.53;;
32108;SDS011;18624;50.042;8.436;2022-11-03T11:35:14;11.52;;;6.07;;
32108;SDS011;18624;50.042;8.436;2022-11-03T11:37:41;11.07;;;5.43;;
32108;SDS011;18624;50.042;8.436;2022-11-03T11:51:03;9.15;;;5.78;;
32108;SDS011;18624;50.042;8.436;2022-11-03T11:53:41;9.70;;;6.15;;
32108;SDS011;18624;50.042;8.436;2022-11-03T11:56:11;11.15;;;5.60;;
32108;SDS011;18624;50.042;8.436;2022-11-03T11:58:43;10.27;;;6.35;;
32108;SDS011;18624;50.042;8.436;2022-11-03T12:01:19;8.93;;;5.60;;
32108;SDS011;18624;50.042;8.436;2022-11-03T12:03:57;11.18;;;5.20;;
32108;SDS011;18624;50.042;8.436;2022-11-03T12:06:32;10.55;;;6.25;;
32108;SDS011;18624;50.042;8.436;2022-11-03T12:09:21;9.45;;;6.40;;
32108;SDS011;18624;50.042;8.436;2022-11-03T12:11:50;12.00;;;5.78;;
32108;SDS011;18624;50.042;8.436;2022-11-03T12:19:51;10.27;;;6.32;;
32108;SDS011;18624;50.042;8.436;2022-11-03T12:24:55;12.88;;;6.78;;
32108;SDS011;18624;50.042;8.436;2022-11-03T12:29:50;10.32;;;6.40;;
32108;SDS011;18624;50.042;8.436;2022-11-03T12:32:17;12.73;;;6.57;;
32108;SDS011;18624;50.042;8.436;2022-11-03T12:34:59;7.97;;;4.57;;
32108;SDS011;18624;50.042;8.436;2022-11-03T12:37:26;11.43;;;6.35;;
32108;SDS011;18624;50.042;8.436;2022-11-03T12:39:52;11.35;;;7.05;;
32108;SDS011;18624;50.042;8.436;2022-11-03T12:42:19;9.90;;;6.82;;
32108;SDS011;18624;50.042;8.436;2022-11-03T12:44:46;14.52;;;7.82;;
32108;SDS011;18624;50.042;8.436;2022-11-03T12:47:12;10.23;;;6.50;;
32108;SDS011;18624;50.042;8.436;2022-11-03T12:49:39;10.77;;;6.75;;
32108;SDS011;18624;50.042;8.436;2022-11-03T12:52:05;12.82;;;7.05;;
32108;SDS011;18624;50.042;8.436;2022-11-03T12:54:34;10.60;;;6.28;;
32108;SDS011;18624;50.042;8.436;2022-11-03T12:57:00;9.23;;;6.20;;
32108;SDS011;18624;50.042;8.436;2022-11-03T12:59:27;10.93;;;7.30;;
32108;SDS011;18624;50.042;8.436;2022-11-03T13:01:53;11.10;;;6.18;;
32108;SDS011;18624;50.042;8.436;2022-11-03T13:04:20;14.95;;;7.20;;
32108;SDS011;18624;50.042;8.436;2022-11-03T13:06:46;9.65;;;6.47;;
32108;SDS011;18624;50.042;8.436;2022-11-03T13:09:13;10.70;;;6.53;;
32108;SDS011;18624;50.042;8.436;2022-11-03T13:11:39;14.32;;;6.82;;
32108;SDS011;18624;50.042;8.436;2022-11-03T13:14:24;10.63;;;5.68;;
32108;SDS011;18624;50.042;8.436;2022-11-03T13:16:51;9.45;;;6.30;;
32108;SDS011;18624;50.042;8.436;2022-11-03T13:19:18;9.40;;;5.97;;
32108;SDS011;18624;50.042;8.436;2022-11-03T13:21:44;7.75;;;5.75;;
32108;SDS011;18624;50.042;8.436;2022-11-03T13:24:10;8.10;;;4.97;;
32108;SDS011;18624;50.042;8.436;2022-11-03T13:26:37;9.73;;;4.90;;
32108;SDS011;18624;50.042;8.436;2022-11-03T13:29:03;9.93;;;5.65;;
32108;SDS011;18624;50.042;8.436;2022-11-03T13:31:30;12.18;;;6.25;;
32108;SDS011;18624;50.042;8.436;2022-11-03T13:33:56;11.75;;;7.07;;
32108;SDS011;18624;50.042;8.436;2022-11-03T13:36:22;9.55;;;6.28;;
32108;SDS011;18624;50.042;8.436;2022-11-03T13:38:49;13.05;;;7.05;;
32108;SDS011;18624;50.042;8.436;2022-11-03T13:41:15;8.80;;;5.50;;
32108;SDS011;18624;50.042;8.436;2022-11-03T13:43:42;11.60;;;7.22;;
32108;SDS011;18624;50.042;8.436;2022-11-03T13:46:08;13.68;;;5.90;;
32108;SDS011;18624;50.042;8.436;2022-11-03T13:48:34;7.88;;;5.80;;
32108;SDS011;18624;50.042;8.436;2022-11-03T13:51:21;10.80;;;6.80;;
32108;SDS011;18624;50.042;8.436;2022-11-03T13:53:47;10.85;;;6.13;;
32108;SDS011;18624;50.042;8.436;2022-11-03T13:56:34;8.70;;;5.95;;
32108;SDS011;18624;50.042;8.436;2022-11-03T13:59:21;10.40;;;5.43;;
32108;SDS011;18624;50.042;8.436;2022-11-03T14:01:49;7.78;;;5.40;;
32108;SDS011;18624;50.042;8.436;2022-11-03T14:04:35;9.70;;;5.75;;
32108;SDS011;18624;50.042;8.436;2022-11-03T14:07:08;9.55;;;5.75;;
32108;SDS011;18624;50.042;8.436;2022-11-03T14:09:35;10.27;;;5.95;;
32108;SDS011;18624;50.042;8.436;2022-11-03T14:12:06;12.68;;;6.57;;
32108;SDS011;18624;50.042;8.436;2022-11-03T14:14:51;10.45;;;5.45;;
32108;SDS011;18624;50.042;8.436;2022-11-03T14:17:17;8.43;;;5.45;;
32108;SDS011;18624;50.042;8.436;2022-11-03T14:19:44;9.63;;;5.78;;
32108;SDS011;18624;50.042;8.436;2022-11-03T14:22:17;10.18;;;6.07;;
32108;SDS011;18624;50.042;8.436;2022-11-03T14:24:44;7.60;;;5.13;;
32108;SDS011;18624;50.042;8.436;2022-11-03T14:27:11;9.88;;;6.57;;
32108;SDS011;18624;50.042;8.436;2022-11-03T14:29:38;8.68;;;6.60;;
32108;SDS011;18624;50.042;8.436;2022-11-03T14:32:04;9.23;;;6.10;;
32108;SDS011;18624;50.042;8.436;2022-11-03T14:34:31;10.70;;;6.60;;
32108;SDS011;18624;50.042;8.436;2022-11-03T14:36:57;10.75;;;5.70;;
32108;SDS011;18624;50.042;8.436;2022-11-03T14:39:24;9.07;;;6.13;;
32108;SDS011;18624;50.042;8.436;2022-11-03T14:41:50;9.55;;;5.50;;
32108;SDS011;18624;50.042;8.436;2022-11-03T14:44:38;7.78;;;6.03;;
32108;SDS011;18624;50.042;8.436;2022-11-03T14:47:06;10.10;;;6.20;;
32108;SDS011;18624;50.042;8.436;2022-11-03T14:49:34;10.05;;;6.22;;
32108;SDS011;18624;50.042;8.436;2022-11-03T14:52:02;7.05;;;6.10;;
32108;SDS011;18624;50.042;8.436;2022-11-03T14:54:30;12.85;;;7.40;;
32108;SDS011;18624;50.042;8.436;2022-11-03T14:56:56;12.82;;;6.18;;
32108;SDS011;18624;50.042;8.436;2022-11-03T14:59:23;8.82;;;5.88;;
32108;SDS011;18624;50.042;8.436;2022-11-03T15:01:51;8.00;;;6.38;;
32108;SDS011;18624;50.042;8.436;2022-11-03T15:04:19;8.13;;;5.43;;
32108;SDS011;18624;50.042;8.436;2022-11-03T15:06:46;6.90;;;5.80;;
32108;SDS011;18624;50.042;8.436;2022-11-03T15:09:13;8.48;;;5.82;;
32108;SDS011;18624;50.042;8.436;2022-11-03T15:11:43;8.18;;;5.07;;
32108;SDS011;18624;50.042;8.436;2022-11-03T15:14:10;8.43;;;5.80;;
32108;SDS011;18624;50.042;8.436;2022-11-03T15:16:37;12.30;;;7.78;;
32108;SDS011;18624;50.042;8.436;2022-11-03T15:19:05;8.52;;;6.55;;
32108;SDS011;18624;50.042;8.436;2022-11-03T15:21:31;11.20;;;7.50;;
32108;SDS011;18624;50.042;8.436;2022-11-03T15:23:58;9.82;;;7.68;;
32108;SDS011;18624;50.042;8.436;2022-11-03T15:26:45;6.78;;;5.97;;
32108;SDS011;18624;50.042;8.436;2022-11-03T15:29:11;6.22;;;5.50;;
32108;SDS011;18624;50.042;8.436;2022-11-03T15:31:38;8.57;;;6.05;;
32108;SDS011;18624;50.042;8.436;2022-11-03T15:34:12;9.65;;;5.75;;
32108;SDS011;18624;50.042;8.436;2022-11-03T15:36:39;13.63;;;7.25;;
32108;SDS011;18624;50.042;8.436;2022-11-03T15:39:05;13.23;;;7.70;;
32108;SDS011;18624;50.042;8.436;2022-11-03T15:41:31;8.65;;;7.18;;
32108;SDS011;18624;50.042;8.436;2022-11-03T15:43:58;10.50;;;6.75;;
32108;SDS011;18624;50.042;8.436;2022-11-03T15:46:24;7.72;;;5.90;;
32108;SDS011;18624;50.042;8.436;2022-11-03T15:48:51;7.65;;;6.03;;
32108;SDS011;18624;50.042;8.436;2022-11-03T15:51:19;9.30;;;5.60;;
32108;SDS011;18624;50.042;8.436;2022-11-03T15:53:45;9.70;;;6.70;;
32108;SDS011;18624;50.042;8.436;2022-11-03T15:56:12;5.45;;;4.93;;
32108;SDS011;18624;50.042;8.436;2022-11-03T15:58:38;8.50;;;5.65;;
32108;SDS011;18624;50.042;8.436;2022-11-03T16:01:05;8.50;;;6.18;;
32108;SDS011;18624;50.042;8.436;2022-11-03T16:03:31;8.02;;;5.82;;
32108;SDS011;18624;50.042;8.436;2022-11-03T16:05:58;6.90;;;6.03;;
32108;SDS011;18624;50.042;8.436;2022-11-03T16:08:25;11.05;;;6.68;;
32108;SDS011;18624;50.042;8.436;2022-11-03T16:10:51;8.70;;;5.90;;
32108;SDS011;18624;50.042;8.436;2022-11-03T16:13:23;8.13;;;5.82;;